sensor_id;sensor_type;location;lat;lon;timestamp;pressure;altitude;pressure_sealevel;temperature;humidity
62617;BME280;62539;51.190;6.808;2024-01-11T00:00:21;102771.41;;;15.09;58.00
62617;BME280;62539;51.190;6.808;2024-01-11T00:02:47;102770.47;;;15.06;58.05
62617;BME280;62539;51.190;6.808;2024-01-11T00:05:12;102773.94;;;15.05;58.06
62617;BME280;62539;51.190;6.808;2024-01-11T00:07:37;102773.03;;;15.01;58.09
62617;BME280;62539;51.190;6.808;2024-01-11T00:10:03;102774.75;;;14.99;58.29
62617;BME280;62539;51.190;6.808;2024-01-11T00:12:29;102774.72;;;14.96;58.19
62617;BME280;62539;51.190;6.808;2024-01-11T00:14:54;102776.44;;;14.95;58.02
62617;BME280;62539;51.190;6.808;2024-01-11T00:17:20;102766.81;;;14.91;58.06
62617;BME280;62539;51.190;6.808;2024-01-11T00:19:45;102772.88;;;14.90;58.41
62617;BME280;62539;51.190;6.808;2024-01-11T00:22:11;102766.75;;;14.87;58.15
62617;BME280;62539;51.190;6.808;2024-01-11T00:24:36;102771.06;;;14.83;58.41
62617;BME280;62539;51.190;6.808;2024-01-11T00:27:02;102772.81;;;14.82;58.14
62617;BME280;62539;51.190;6.808;2024-01-11T00:29:27;102777.13;;;14.80;58.27
62617;BME280;62539;51.190;6.808;2024-01-11T00:31:54;102783.19;;;14.78;58.39
62617;BME280;62539;51.190;6.808;2024-01-11T00:34:19;102779.66;;;14.76;58.73
62617;BME280;62539;51.190;6.808;2024-01-11T00:36:45;102782.22;;;14.73;58.54
62617;BME280;62539;51.190;6.808;2024-01-11T00:39:10;102782.22;;;14.71;58.61
62617;BME280;62539;51.190;6.808;2024-01-11T00:41:37;102784.81;;;14.69;58.68
62617;BME280;62539;51.190;6.808;2024-01-11T00:44:02;102771.66;;;14.66;58.49
62617;BME280;62539;51.190;6.808;2024-01-11T00:46:28;102778.59;;;14.64;58.92
62617;BME280;62539;51.190;6.808;2024-01-11T00:48:53;102779.44;;;14.62;58.76
62617;BME280;62539;51.190;6.808;2024-01-11T00:51:18;102778.50;;;14.58;58.90
62617;BME280;62539;51.190;6.808;2024-01-11T00:53:44;102768.91;;;14.55;58.72
62617;BME280;62539;51.190;6.808;2024-01-11T00:56:19;102770.63;;;14.53;58.76
62617;BME280;62539;51.190;6.808;2024-01-11T00:58:45;102774.09;;;14.52;58.77
62617;BME280;62539;51.190;6.808;2024-01-11T01:01:12;102773.19;;;14.50;58.68
62617;BME280;62539;51.190;6.808;2024-01-11T01:03:38;102767.94;;;14.49;58.32
62617;BME280;62539;51.190;6.808;2024-01-11T01:06:05;102754.91;;;14.50;58.50
62617;BME280;62539;51.190;6.808;2024-01-11T01:08:30;102771.53;;;14.57;58.47
62617;BME280;62539;51.190;6.808;2024-01-11T01:10:56;102771.66;;;14.66;58.30
62617;BME280;62539;51.190;6.808;2024-01-11T01:13:21;102772.72;;;14.76;57.47
62617;BME280;62539;51.190;6.808;2024-01-11T01:15:47;102766.72;;;14.85;57.53
62617;BME280;62539;51.190;6.808;2024-01-11T01:18:12;102770.34;;;14.95;57.00
62617;BME280;62539;51.190;6.808;2024-01-11T01:20:38;102772.19;;;15.04;56.80
62617;BME280;62539;51.190;6.808;2024-01-11T01:23:03;102779.25;;;15.11;56.13
62617;BME280;62539;51.190;6.808;2024-01-11T01:25:29;102774.13;;;15.20;56.29
62617;BME280;62539;51.190;6.808;2024-01-11T01:27:55;102771.63;;;15.28;55.98
62617;BME280;62539;51.190;6.808;2024-01-11T01:30:21;102776.91;;;15.36;55.69
62617;BME280;62539;51.190;6.808;2024-01-11T01:32:46;102771.75;;;15.42;55.69
62617;BME280;62539;51.190;6.808;2024-01-11T01:35:12;102766.59;;;15.48;55.40
62617;BME280;62539;51.190;6.808;2024-01-11T01:37:37;102771.91;;;15.56;55.42
62617;BME280;62539;51.190;6.808;2024-01-11T01:40:03;102768.50;;;15.63;55.19
62617;BME280;62539;51.190;6.808;2024-01-11T01:42:29;102772.91;;;15.69;54.73
62617;BME280;62539;51.190;6.808;2024-01-11T01:44:54;102778.19;;;15.75;54.83
62617;BME280;62539;51.190;6.808;2024-01-11T01:47:20;102779.97;;;15.78;54.96
62617;BME280;62539;51.190;6.808;2024-01-11T01:49:47;102778.25;;;15.80;54.57
62617;BME280;62539;51.190;6.808;2024-01-11T01:52:15;102786.09;;;15.81;54.76
62617;BME280;62539;51.190;6.808;2024-01-11T01:54:42;102793.06;;;15.79;54.63
62617;BME280;62539;51.190;6.808;2024-01-11T01:57:09;102782.59;;;15.78;53.77
62617;BME280;62539;51.190;6.808;2024-01-11T01:59:37;102786.03;;;15.73;54.27
62617;BME280;62539;51.190;6.808;2024-01-11T02:02:04;102790.34;;;15.70;54.25
62617;BME280;62539;51.190;6.808;2024-01-11T02:04:31;102792.06;;;15.68;54.04
62617;BME280;62539;51.190;6.808;2024-01-11T02:06:57;102784.19;;;15.63;54.11
62617;BME280;62539;51.190;6.808;2024-01-11T02:09:23;102791.16;;;15.61;54.05
62617;BME280;62539;51.190;6.808;2024-01-11T02:11:51;102791.97;;;15.58;54.88
62617;BME280;62539;51.190;6.808;2024-01-11T02:14:18;102789.44;;;15.63;54.85
62617;BME280;62539;51.190;6.808;2024-01-11T02:16:44;102788.59;;;15.69;54.90
62617;BME280;62539;51.190;6.808;2024-01-11T02:19:12;102791.28;;;15.73;54.32
62617;BME280;62539;51.190;6.808;2024-01-11T02:21:41;102786.94;;;15.77;54.35
62617;BME280;62539;51.190;6.808;2024-01-11T02:24:07;102781.72;;;15.80;54.30
62617;BME280;62539;51.190;6.808;2024-01-11T02:26:33;102780.03;;;15.85;54.19
62617;BME280;62539;51.190;6.808;2024-01-11T02:28:59;102785.31;;;15.89;54.24
62617;BME280;62539;51.190;6.808;2024-01-11T02:31:25;102787.09;;;15.93;54.14
62617;BME280;62539;51.190;6.808;2024-01-11T02:33:55;102788.88;;;15.97;53.77
62617;BME280;62539;51.190;6.808;2024-01-11T02:36:21;102781.94;;;16.02;54.01
62617;BME280;62539;51.190;6.808;2024-01-11T02:38:48;102793.31;;;16.06;53.95
62617;BME280;62539;51.190;6.808;2024-01-11T02:41:16;102795.94;;;16.07;53.55
62617;BME280;62539;51.190;6.808;2024-01-11T02:43:47;102796.81;;;16.08;53.56
62617;BME280;62539;51.190;6.808;2024-01-11T02:46:14;102799.44;;;16.06;53.41
62617;BME280;62539;51.190;6.808;2024-01-11T02:48:40;102791.56;;;16.03;53.55
62617;BME280;62539;51.190;6.808;2024-01-11T02:51:06;102795.88;;;15.99;53.56
62617;BME280;62539;51.190;6.808;2024-01-11T02:53:31;102790.59;;;15.95;53.05
62617;BME280;62539;51.190;6.808;2024-01-11T02:56:00;102795.81;;;15.92;53.08
62617;BME280;62539;51.190;6.808;2024-01-11T02:58:26;102795.72;;;15.85;53.20
62617;BME280;62539;51.190;6.808;2024-01-11T03:00:51;102800.94;;;15.82;53.64
62617;BME280;62539;51.190;6.808;2024-01-11T03:03:17;102790.44;;;15.79;53.79
62617;BME280;62539;51.190;6.808;2024-01-11T03:05:42;102786.94;;;15.77;53.91
62617;BME280;62539;51.190;6.808;2024-01-11T03:08:07;102782.59;;;15.78;53.88
62617;BME280;62539;51.190;6.808;2024-01-11T03:10:33;102779.13;;;15.82;54.29
62617;BME280;62539;51.190;6.808;2024-01-11T03:12:58;102774.78;;;15.85;53.94
62617;BME280;62539;51.190;6.808;2024-01-11T03:15:24;102782.69;;;15.89;53.60
62617;BME280;62539;51.190;6.808;2024-01-11T03:17:50;102774.88;;;15.92;53.62
62617;BME280;62539;51.190;6.808;2024-01-11T03:20:15;102778.38;;;15.94;53.97
62617;BME280;62539;51.190;6.808;2024-01-11T03:22:47;102778.44;;;16.00;53.56
62617;BME280;62539;51.190;6.808;2024-01-11T03:25:12;102787.19;;;16.02;53.42
62617;BME280;62539;51.190;6.808;2024-01-11T03:27:38;102789.81;;;16.05;53.69
62617;BME280;62539;51.190;6.808;2024-01-11T03:30:03;102788.09;;;16.09;53.56
62617;BME280;62539;51.190;6.808;2024-01-11T03:32:29;102787.25;;;16.11;53.40
62617;BME280;62539;51.190;6.808;2024-01-11T03:34:55;102784.63;;;16.13;53.38
62617;BME280;62539;51.190;6.808;2024-01-11T03:37:20;102785.53;;;16.13;53.30
62617;BME280;62539;51.190;6.808;2024-01-11T03:39:46;102788.13;;;16.12;53.53
62617;BME280;62539;51.190;6.808;2024-01-11T03:42:11;102781.13;;;16.09;53.23
62617;BME280;62539;51.190;6.808;2024-01-11T03:44:37;102785.44;;;16.06;52.87
62617;BME280;62539;51.190;6.808;2024-01-11T03:47:03;102789.78;;;15.99;52.55
62617;BME280;62539;51.190;6.808;2024-01-11T03:49:29;102787.97;;;15.93;53.00
62617;BME280;62539;51.190;6.808;2024-01-11T03:51:54;102783.59;;;15.89;53.44
62617;BME280;62539;51.190;6.808;2024-01-11T03:54:19;102790.56;;;15.89;53.67
62617;BME280;62539;51.190;6.808;2024-01-11T03:56:45;102797.56;;;15.93;53.61
62617;BME280;62539;51.190;6.808;2024-01-11T03:59:10;102794.94;;;15.94;53.46
62617;BME280;62539;51.190;6.808;2024-01-11T04:01:40;102797.63;;;15.99;53.63
62617;BME280;62539;51.190;6.808;2024-01-11T04:04:06;102801.13;;;16.01;53.49
62617;BME280;62539;51.190;6.808;2024-01-11T04:06:33;102796.78;;;16.03;53.71
62617;BME280;62539;51.190;6.808;2024-01-11T04:08:58;102788.06;;;16.06;53.34
62617;BME280;62539;51.190;6.808;2024-01-11T04:11:27;102780.28;;;16.10;53.32
62617;BME280;62539;51.190;6.808;2024-01-11T04:13:53;102788.16;;;16.13;53.25
62617;BME280;62539;51.190;6.808;2024-01-11T04:16:19;102795.13;;;16.16;53.12
62617;BME280;62539;51.190;6.808;2024-01-11T04:18:45;102803.88;;;16.18;53.13
62617;BME280;62539;51.190;6.808;2024-01-11T04:21:24;102800.41;;;16.19;52.86
62617;BME280;62539;51.190;6.808;2024-01-11T04:23:53;102813.50;;;16.17;53.30
62617;BME280;62539;51.190;6.808;2024-01-11T04:26:19;102813.47;;;16.14;53.04
62617;BME280;62539;51.190;6.808;2024-01-11T04:28:45;102817.78;;;16.11;53.17
62617;BME280;62539;51.190;6.808;2024-01-11T04:31:12;102816.91;;;16.07;53.14
62617;BME280;62539;51.190;6.808;2024-01-11T04:33:41;102824.69;;;16.01;53.25
62617;BME280;62539;51.190;6.808;2024-01-11T04:36:08;102818.56;;;15.99;53.23
62617;BME280;62539;51.190;6.808;2024-01-11T04:38:34;102819.47;;;16.01;53.48
62617;BME280;62539;51.190;6.808;2024-01-11T04:40:59;102816.91;;;16.07;53.31
62617;BME280;62539;51.190;6.808;2024-01-11T04:43:25;102827.44;;;16.16;53.11
62617;BME280;62539;51.190;6.808;2024-01-11T04:45:51;102832.75;;;16.23;53.08
62617;BME280;62539;51.190;6.808;2024-01-11T04:48:17;102836.28;;;16.31;52.99
62617;BME280;62539;51.190;6.808;2024-01-11T04:50:44;102825.88;;;16.37;52.96
62617;BME280;62539;51.190;6.808;2024-01-11T04:53:10;102825.91;;;16.45;52.66
62617;BME280;62539;51.190;6.808;2024-01-11T04:55:36;102820.72;;;16.50;52.51
62617;BME280;62539;51.190;6.808;2024-01-11T04:58:02;102823.34;;;16.53;52.22
62617;BME280;62539;51.190;6.808;2024-01-11T05:00:27;102829.50;;;16.58;52.31
62617;BME280;62539;51.190;6.808;2024-01-11T05:02:52;102833.91;;;16.62;52.48
62617;BME280;62539;51.190;6.808;2024-01-11T05:05:18;102834.81;;;16.67;52.35
62617;BME280;62539;51.190;6.808;2024-01-11T05:07:43;102827.84;;;16.69;52.11
62617;BME280;62539;51.190;6.808;2024-01-11T05:10:09;102834.81;;;16.72;52.23
62617;BME280;62539;51.190;6.808;2024-01-11T05:12:34;102829.59;;;16.75;52.19
62617;BME280;62539;51.190;6.808;2024-01-11T05:15:02;102821.75;;;16.77;52.11
62617;BME280;62539;51.190;6.808;2024-01-11T05:17:28;102818.28;;;16.78;51.99
62617;BME280;62539;51.190;6.808;2024-01-11T05:19:53;102827.00;;;16.81;51.88
62617;BME280;62539;51.190;6.808;2024-01-11T05:22:18;102834.91;;;16.83;52.06
62617;BME280;62539;51.190;6.808;2024-01-11T05:24:44;102839.28;;;16.84;52.06
62617;BME280;62539;51.190;6.808;2024-01-11T05:27:09;102838.44;;;16.88;52.04
62617;BME280;62539;51.190;6.808;2024-01-11T05:29:35;102852.38;;;16.85;51.85
62617;BME280;62539;51.190;6.808;2024-01-11T05:32:00;102849.78;;;16.88;52.10
62617;BME280;62539;51.190;6.808;2024-01-11T05:34:26;102847.16;;;16.88;51.46
62617;BME280;62539;51.190;6.808;2024-01-11T05:36:51;102848.91;;;16.89;51.69
62617;BME280;62539;51.190;6.808;2024-01-11T05:39:16;102843.66;;;16.88;51.72
62617;BME280;62539;51.190;6.808;2024-01-11T05:41:45;102851.56;;;16.91;51.43
62617;BME280;62539;51.190;6.808;2024-01-11T05:44:10;102845.44;;;16.92;51.71
62617;BME280;62539;51.190;6.808;2024-01-11T05:46:36;102853.31;;;16.94;51.68
62617;BME280;62539;51.190;6.808;2024-01-11T05:49:01;102852.44;;;16.93;51.90
62617;BME280;62539;51.190;6.808;2024-01-11T05:51:27;102856.81;;;16.94;51.81
62617;BME280;62539;51.190;6.808;2024-01-11T05:53:53;102862.94;;;16.96;51.68
62617;BME280;62539;51.190;6.808;2024-01-11T05:56:18;102871.72;;;16.98;51.79
62617;BME280;62539;51.190;6.808;2024-01-11T05:58:45;102878.72;;;16.99;51.94
62617;BME280;62539;51.190;6.808;2024-01-11T06:01:11;102871.75;;;17.01;52.02
62617;BME280;62539;51.190;6.808;2024-01-11T06:03:36;102881.38;;;17.02;52.09
62617;BME280;62539;51.190;6.808;2024-01-11T06:06:03;102890.97;;;17.03;51.92
62617;BME280;62539;51.190;6.808;2024-01-11T06:08:30;102888.34;;;17.02;52.01
62617;BME280;62539;51.190;6.808;2024-01-11T06:10:59;102895.34;;;17.03;51.77
62617;BME280;62539;51.190;6.808;2024-01-11T06:13:24;102890.97;;;17.03;51.97
62617;BME280;62539;51.190;6.808;2024-01-11T06:15:49;102892.75;;;17.04;52.08
62617;BME280;62539;51.190;6.808;2024-01-11T06:18:15;102892.75;;;17.04;52.36
62617;BME280;62539;51.190;6.808;2024-01-11T06:20:41;102886.59;;;17.04;52.04
62617;BME280;62539;51.190;6.808;2024-01-11T06:23:07;102896.22;;;17.03;51.76
62617;BME280;62539;51.190;6.808;2024-01-11T06:25:33;102884.84;;;17.01;52.38
62617;BME280;62539;51.190;6.808;2024-01-11T06:27:59;102900.56;;;16.98;52.02
62617;BME280;62539;51.190;6.808;2024-01-11T06:30:24;102893.50;;;16.93;51.85
62617;BME280;62539;51.190;6.808;2024-01-11T06:32:49;102882.13;;;16.89;52.11
62617;BME280;62539;51.190;6.808;2024-01-11T06:35:15;102892.59;;;16.87;52.50
62617;BME280;62539;51.190;6.808;2024-01-11T06:37:40;102884.72;;;16.86;52.69
62617;BME280;62539;51.190;6.808;2024-01-11T06:40:06;102886.50;;;16.90;52.50
62617;BME280;62539;51.190;6.808;2024-01-11T06:42:33;102884.78;;;16.92;52.59
62617;BME280;62539;51.190;6.808;2024-01-11T06:44:58;102893.50;;;16.93;52.53
62617;BME280;62539;51.190;6.808;2024-01-11T06:47:24;102890.03;;;16.95;52.49
62617;BME280;62539;51.190;6.808;2024-01-11T06:49:49;102894.47;;;16.99;52.98
62617;BME280;62539;51.190;6.808;2024-01-11T06:52:15;102896.22;;;17.03;53.08
62617;BME280;62539;51.190;6.808;2024-01-11T06:54:40;102884.03;;;17.09;53.31
62617;BME280;62539;51.190;6.808;2024-01-11T06:57:06;102884.91;;;17.12;53.12
62617;BME280;62539;51.190;6.808;2024-01-11T06:59:31;102880.56;;;17.16;53.22
62617;BME280;62539;51.190;6.808;2024-01-11T07:01:56;102894.56;;;17.21;54.40
62617;BME280;62539;51.190;6.808;2024-01-11T07:04:22;102898.97;;;17.27;54.50
62617;BME280;62539;51.190;6.808;2024-01-11T07:06:48;102896.38;;;17.31;55.13
62617;BME280;62539;51.190;6.808;2024-01-11T07:09:13;102892.88;;;17.34;55.25
62617;BME280;62539;51.190;6.808;2024-01-11T07:11:39;102891.16;;;17.38;54.88
62617;BME280;62539;51.190;6.808;2024-01-11T07:14:05;102892.91;;;17.39;54.76
62617;BME280;62539;51.190;6.808;2024-01-11T07:16:30;102901.66;;;17.41;54.78
62617;BME280;62539;51.190;6.808;2024-01-11T07:18:56;102922.66;;;17.44;55.46
62617;BME280;62539;51.190;6.808;2024-01-11T07:21:22;102923.56;;;17.46;55.05
62617;BME280;62539;51.190;6.808;2024-01-11T07:24:00;102922.69;;;17.50;55.17
62617;BME280;62539;51.190;6.808;2024-01-11T07:26:26;102920.09;;;17.53;55.58
62617;BME280;62539;51.190;6.808;2024-01-11T07:28:53;102910.47;;;17.55;55.34
62617;BME280;62539;51.190;6.808;2024-01-11T07:31:21;102907.84;;;17.57;55.42
62617;BME280;62539;51.190;6.808;2024-01-11T07:33:47;102915.72;;;17.58;54.99
62617;BME280;62539;51.190;6.808;2024-01-11T07:36:12;102935.84;;;17.61;54.71
62617;BME280;62539;51.190;6.808;2024-01-11T07:38:38;102929.75;;;17.60;54.23
62617;BME280;62539;51.190;6.808;2024-01-11T07:41:04;102927.97;;;17.58;53.57
62617;BME280;62539;51.190;6.808;2024-01-11T07:43:29;102942.88;;;17.63;53.05
62617;BME280;62539;51.190;6.808;2024-01-11T07:45:56;102946.38;;;17.62;53.00
62617;BME280;62539;51.190;6.808;2024-01-11T07:48:22;102943.75;;;17.62;53.37
62617;BME280;62539;51.190;6.808;2024-01-11T07:50:48;102956.88;;;17.62;53.31
62617;BME280;62539;51.190;6.808;2024-01-11T07:53:14;102945.50;;;17.60;53.16
62617;BME280;62539;51.190;6.808;2024-01-11T07:55:40;102948.97;;;17.56;53.04
62617;BME280;62539;51.190;6.808;2024-01-11T07:58:06;102955.06;;;17.49;52.39
62617;BME280;62539;51.190;6.808;2024-01-11T08:00:32;102946.28;;;17.44;52.48
62617;BME280;62539;51.190;6.808;2024-01-11T08:02:57;102947.13;;;17.38;52.82
62617;BME280;62539;51.190;6.808;2024-01-11T08:05:23;102952.34;;;17.33;52.72
62617;BME280;62539;51.190;6.808;2024-01-11T08:07:48;102945.31;;;17.26;52.49
62617;BME280;62539;51.190;6.808;2024-01-11T08:10:14;102943.53;;;17.24;53.09
62617;BME280;62539;51.190;6.808;2024-01-11T08:12:39;102945.31;;;17.26;53.26
62617;BME280;62539;51.190;6.808;2024-01-11T08:15:05;102940.09;;;17.32;52.93
62617;BME280;62539;51.190;6.808;2024-01-11T08:17:30;102938.38;;;17.38;52.86
62617;BME280;62539;51.190;6.808;2024-01-11T08:19:56;102938.41;;;17.44;52.69
62617;BME280;62539;51.190;6.808;2024-01-11T08:22:22;102928.78;;;17.47;52.19
62617;BME280;62539;51.190;6.808;2024-01-11T08:24:48;102932.31;;;17.51;52.17
62617;BME280;62539;51.190;6.808;2024-01-11T08:27:14;102930.56;;;17.55;52.03
62617;BME280;62539;51.190;6.808;2024-01-11T08:29:42;102935.00;;;17.60;52.77
62617;BME280;62539;51.190;6.808;2024-01-11T08:32:08;102928.00;;;17.66;53.66
62617;BME280;62539;51.190;6.808;2024-01-11T08:34:33;102945.53;;;17.73;54.19
62617;BME280;62539;51.190;6.808;2024-01-11T08:36:58;102938.53;;;17.80;54.00
62617;BME280;62539;51.190;6.808;2024-01-11T08:39:24;102933.34;;;17.87;53.58
62617;BME280;62539;51.190;6.808;2024-01-11T08:41:49;102936.84;;;17.96;54.02
62617;BME280;62539;51.190;6.808;2024-01-11T08:44:15;102932.53;;;18.04;53.84
62617;BME280;62539;51.190;6.808;2024-01-11T08:46:40;102928.16;;;18.12;53.33
62617;BME280;62539;51.190;6.808;2024-01-11T08:49:06;102941.31;;;18.21;53.70
62617;BME280;62539;51.190;6.808;2024-01-11T08:51:31;102939.56;;;18.30;53.33
62617;BME280;62539;51.190;6.808;2024-01-11T08:53:57;102935.19;;;18.40;53.26
62617;BME280;62539;51.190;6.808;2024-01-11T08:56:23;102937.81;;;18.49;53.26
62617;BME280;62539;51.190;6.808;2024-01-11T08:58:48;102942.19;;;18.61;52.86
62617;BME280;62539;51.190;6.808;2024-01-11T09:01:15;102940.44;;;18.69;52.92
62617;BME280;62539;51.190;6.808;2024-01-11T09:03:41;102950.97;;;18.77;52.24
62617;BME280;62539;51.190;6.808;2024-01-11T09:06:06;102962.34;;;18.84;51.94
62617;BME280;62539;51.190;6.808;2024-01-11T09:08:32;102952.69;;;18.89;51.60
62617;BME280;62539;51.190;6.808;2024-01-11T09:10:58;102965.84;;;18.93;51.62
62617;BME280;62539;51.190;6.808;2024-01-11T09:13:24;102957.97;;;18.98;51.31
62617;BME280;62539;51.190;6.808;2024-01-11T09:15:51;102957.09;;;19.02;50.52
62617;BME280;62539;51.190;6.808;2024-01-11T09:18:17;102963.22;;;19.07;50.38
62617;BME280;62539;51.190;6.808;2024-01-11T09:20:43;102968.47;;;19.10;50.62
62617;BME280;62539;51.190;6.808;2024-01-11T09:23:09;102981.63;;;19.12;49.50
62617;BME280;62539;51.190;6.808;2024-01-11T09:25:35;102980.75;;;19.15;49.42
62617;BME280;62539;51.190;6.808;2024-01-11T09:28:00;102980.72;;;19.21;49.37
62617;BME280;62539;51.190;6.808;2024-01-11T09:30:26;102979.84;;;19.25;48.90
62617;BME280;62539;51.190;6.808;2024-01-11T09:32:52;102980.72;;;19.32;48.71
62617;BME280;62539;51.190;6.808;2024-01-11T09:35:17;102986.81;;;19.38;48.81
62617;BME280;62539;51.190;6.808;2024-01-11T09:37:42;102985.94;;;19.46;48.51
62617;BME280;62539;51.190;6.808;2024-01-11T09:40:11;102992.06;;;19.56;48.38
62617;BME280;62539;51.190;6.808;2024-01-11T09:42:37;102990.28;;;19.64;47.89
62617;BME280;62539;51.190;6.808;2024-01-11T09:45:07;102990.22;;;19.72;48.02
62617;BME280;62539;51.190;6.808;2024-01-11T09:47:35;102998.09;;;19.78;47.94
62617;BME280;62539;51.190;6.808;2024-01-11T09:50:02;103012.13;;;19.83;48.17
62617;BME280;62539;51.190;6.808;2024-01-11T09:52:28;103005.06;;;19.88;47.92
62617;BME280;62539;51.190;6.808;2024-01-11T09:54:57;102996.31;;;19.94;48.30
62617;BME280;62539;51.190;6.808;2024-01-11T09:57:29;102992.78;;;19.98;47.94
62617;BME280;62539;51.190;6.808;2024-01-11T09:59:57;102999.78;;;20.04;47.92
62617;BME280;62539;51.190;6.808;2024-01-11T10:02:24;102999.72;;;20.10;48.04
62617;BME280;62539;51.190;6.808;2024-01-11T10:04:53;102996.19;;;20.17;47.87
62617;BME280;62539;51.190;6.808;2024-01-11T10:07:23;102999.66;;;20.22;47.23
62617;BME280;62539;51.190;6.808;2024-01-11T10:09:50;102997.84;;;20.31;48.00
62617;BME280;62539;51.190;6.808;2024-01-11T10:12:20;103008.34;;;20.37;47.00
62617;BME280;62539;51.190;6.808;2024-01-11T10:14:48;103010.06;;;20.44;46.70
62617;BME280;62539;51.190;6.808;2024-01-11T10:17:14;103004.75;;;20.50;46.51
62617;BME280;62539;51.190;6.808;2024-01-11T10:19:39;103011.72;;;20.58;46.40
62617;BME280;62539;51.190;6.808;2024-01-11T10:22:05;103007.28;;;20.66;46.11
62617;BME280;62539;51.190;6.808;2024-01-11T10:24:32;102997.56;;;20.73;45.91
62617;BME280;62539;51.190;6.808;2024-01-11T10:26:58;102999.25;;;20.81;46.06
62617;BME280;62539;51.190;6.808;2024-01-11T10:29:35;103004.50;;;20.89;45.13
62617;BME280;62539;51.190;6.808;2024-01-11T10:32:03;103004.44;;;20.94;45.32
62617;BME280;62539;51.190;6.808;2024-01-11T10:34:30;103002.69;;;20.94;45.12
62617;BME280;62539;51.190;6.808;2024-01-11T10:36:56;102993.81;;;21.00;45.32
62617;BME280;62539;51.190;6.808;2024-01-11T10:39:24;102992.88;;;21.07;45.27
62617;BME280;62539;51.190;6.808;2024-01-11T10:41:52;103007.75;;;21.14;44.71
62617;BME280;62539;51.190;6.808;2024-01-11T10:44:33;103006.78;;;21.25;45.13
62617;BME280;62539;51.190;6.808;2024-01-11T10:47:03;103012.84;;;21.32;44.15
62617;BME280;62539;51.190;6.808;2024-01-11T10:49:32;103002.22;;;21.39;44.04
62617;BME280;62539;51.190;6.808;2024-01-11T10:52:03;103006.47;;;21.51;43.47
62617;BME280;62539;51.190;6.808;2024-01-11T10:54:33;103012.53;;;21.61;42.97
62617;BME280;62539;51.190;6.808;2024-01-11T10:57:00;103014.19;;;21.71;43.34
62617;BME280;62539;51.190;6.808;2024-01-11T10:59:29;103018.28;;;21.97;42.56
62617;BME280;62539;51.190;6.808;2024-01-11T11:01:57;103029.44;;;22.18;42.41
62617;BME280;62539;51.190;6.808;2024-01-11T11:04:31;103023.09;;;22.30;41.86
62617;BME280;62539;51.190;6.808;2024-01-11T11:06:59;103021.03;;;22.52;41.49
62617;BME280;62539;51.190;6.808;2024-01-11T11:09:26;103021.50;;;22.79;41.30
62617;BME280;62539;51.190;6.808;2024-01-11T11:11:58;103006.47;;;22.81;41.50
62617;BME280;62539;51.190;6.808;2024-01-11T11:14:24;103006.47;;;23.74;39.66
62617;BME280;62539;51.190;6.808;2024-01-11T11:16:51;103002.34;;;24.03;39.35
62617;BME280;62539;51.190;6.808;2024-01-11T11:19:19;103001.22;;;24.51;38.22
62617;BME280;62539;51.190;6.808;2024-01-11T11:21:47;103002.94;;;24.88;37.42
62617;BME280;62539;51.190;6.808;2024-01-11T11:24:14;103003.94;;;25.17;37.19
62617;BME280;62539;51.190;6.808;2024-01-11T11:26:42;103008.63;;;25.41;36.91
62617;BME280;62539;51.190;6.808;2024-01-11T11:29:08;103003.50;;;25.66;36.59
62617;BME280;62539;51.190;6.808;2024-01-11T11:34:06;102997.63;;;26.15;35.98
62617;BME280;62539;51.190;6.808;2024-01-11T11:36:33;103003.88;;;26.40;35.46
62617;BME280;62539;51.190;6.808;2024-01-11T11:39:01;103004.78;;;26.66;34.90
62617;BME280;62539;51.190;6.808;2024-01-11T11:41:27;102993.31;;;26.91;34.52
62617;BME280;62539;51.190;6.808;2024-01-11T11:43:53;102990.47;;;27.21;33.90
62617;BME280;62539;51.190;6.808;2024-01-11T11:46:19;102998.38;;;27.48;33.69
62617;BME280;62539;51.190;6.808;2024-01-11T11:48:51;102988.66;;;27.71;33.13
62617;BME280;62539;51.190;6.808;2024-01-11T11:51:21;102998.47;;;27.93;32.75
62617;BME280;62539;51.190;6.808;2024-01-11T11:53:48;103005.66;;;28.14;32.36
62617;BME280;62539;51.190;6.808;2024-01-11T11:56:20;102996.81;;;28.35;31.81
62617;BME280;62539;51.190;6.808;2024-01-11T11:58:47;102990.66;;;28.55;31.81
62617;BME280;62539;51.190;6.808;2024-01-11T12:01:15;102985.50;;;28.71;31.43
62617;BME280;62539;51.190;6.808;2024-01-11T12:03:42;102992.81;;;28.88;31.36
62617;BME280;62539;51.190;6.808;2024-01-11T12:06:15;102990.13;;;29.09;30.90
62617;BME280;62539;51.190;6.808;2024-01-11T12:08:47;102995.53;;;29.26;30.58
62617;BME280;62539;51.190;6.808;2024-01-11T12:11:16;102979.63;;;29.44;30.31
62617;BME280;62539;51.190;6.808;2024-01-11T12:13:43;102972.63;;;29.60;29.96
62617;BME280;62539;51.190;6.808;2024-01-11T12:16:10;102965.88;;;29.71;29.89
62617;BME280;62539;51.190;6.808;2024-01-11T12:18:35;102958.16;;;29.84;29.78
62617;BME280;62539;51.190;6.808;2024-01-11T12:21:01;102955.72;;;29.97;29.74
62617;BME280;62539;51.190;6.808;2024-01-11T12:23:27;102953.09;;;30.14;29.40
62617;BME280;62539;51.190;6.808;2024-01-11T12:26:01;102946.13;;;30.29;28.97
62617;BME280;62539;51.190;6.808;2024-01-11T12:28:29;102943.75;;;30.41;29.33
62617;BME280;62539;51.190;6.808;2024-01-11T12:30:54;102935.31;;;30.48;29.13
62617;BME280;62539;51.190;6.808;2024-01-11T12:33:20;102943.81;;;30.57;28.66
62617;BME280;62539;51.190;6.808;2024-01-11T12:35:47;102946.97;;;30.65;28.91
62617;BME280;62539;51.190;6.808;2024-01-11T12:38:13;102942.41;;;30.67;28.60
62617;BME280;62539;51.190;6.808;2024-01-11T12:40:39;102941.28;;;30.71;28.99
62617;BME280;62539;51.190;6.808;2024-01-11T12:43:06;102941.28;;;30.71;28.69
62617;BME280;62539;51.190;6.808;2024-01-11T12:45:33;102942.53;;;30.82;28.76
62617;BME280;62539;51.190;6.808;2024-01-11T12:48:00;102949.63;;;30.83;28.59